createdAt,value
2023-05-13T00:02:24.807Z,8.27
2023-05-13T00:04:52.735Z,8.47
2023-05-13T00:07:20.738Z,8.40
2023-05-13T00:09:48.663Z,7.80
2023-05-13T00:12:16.540Z,7.80
2023-05-13T00:14:44.430Z,7.63
2023-05-13T00:17:12.419Z,8.10
2023-05-13T00:19:41.869Z,8.00
2023-05-13T00:22:09.820Z,7.67
2023-05-13T00:24:37.760Z,8.07
2023-05-13T00:27:06.178Z,8.93
2023-05-13T00:29:34.072Z,8.20
2023-05-13T00:32:02.062Z,8.20
2023-05-13T00:34:30.519Z,8.33
2023-05-13T00:37:00.973Z,8.80
2023-05-13T00:39:30.869Z,8.03
2023-05-13T00:42:00.177Z,8.00
2023-05-13T00:44:28.777Z,8.60
2023-05-13T00:46:57.018Z,8.80
2023-05-13T00:49:24.902Z,8.17
2023-05-13T00:51:55.079Z,8.00
2023-05-13T00:54:24.357Z,7.63
2023-05-13T00:56:54.447Z,8.03
2023-05-13T00:59:22.476Z,8.00
2023-05-13T01:01:57.416Z,7.90
2023-05-13T01:04:31.930Z,7.57
2023-05-13T01:07:08.905Z,8.20
2023-05-13T01:09:46.470Z,8.07
2023-05-13T01:12:21.101Z,8.10
2023-05-13T01:14:55.151Z,8.40
2023-05-13T01:17:29.487Z,7.80
2023-05-13T01:19:59.581Z,8.10
2023-05-13T01:22:28.779Z,7.50
2023-05-13T01:24:56.678Z,8.50
2023-05-13T01:27:24.832Z,8.20
2023-05-13T01:29:55.179Z,7.97
2023-05-13T01:32:27.238Z,8.40
2023-05-13T01:34:57.272Z,8.83
2023-05-13T01:37:25.372Z,8.37
2023-05-13T01:39:55.179Z,8.03
2023-05-13T01:42:24.308Z,7.40
2023-05-13T01:44:52.945Z,8.70
2023-05-13T01:47:21.476Z,8.53
2023-05-13T01:49:49.544Z,7.60
2023-05-13T01:52:17.445Z,7.33
2023-05-13T01:54:46.168Z,7.67
2023-05-13T01:57:16.938Z,7.97
2023-05-13T01:59:45.074Z,7.67
2023-05-13T02:02:13.711Z,8.00
2023-05-13T02:04:41.730Z,7.60
2023-05-13T02:07:09.781Z,9.13
2023-05-13T02:09:37.658Z,7.80
2023-05-13T02:12:08.147Z,7.90
2023-05-13T02:14:38.298Z,7.67
2023-05-13T02:17:06.244Z,7.80
2023-05-13T02:19:34.202Z,7.73
2023-05-13T02:22:02.070Z,8.07
2023-05-13T02:24:32.003Z,7.80
2023-05-13T02:26:59.933Z,7.90
2023-05-13T02:29:28.014Z,8.13
2023-05-13T02:31:57.587Z,7.63
2023-05-13T02:34:25.578Z,8.33
2023-05-13T02:36:54.751Z,7.40
2023-05-13T02:39:22.846Z,8.07
2023-05-13T02:41:50.816Z,7.97
2023-05-13T02:44:19.034Z,8.07
2023-05-13T02:46:47.350Z,8.27
2023-05-13T02:49:16.618Z,8.20
2023-05-13T02:51:44.492Z,8.43
2023-05-13T02:54:12.365Z,8.10
2023-05-13T02:56:40.217Z,8.23
2023-05-13T02:59:08.324Z,8.30
2023-05-13T03:01:36.358Z,8.57
2023-05-13T03:04:04.585Z,8.47
2023-05-13T03:06:33.891Z,8.53
2023-05-13T03:09:01.801Z,8.70
2023-05-13T03:11:29.764Z,8.83
2023-05-13T03:13:57.574Z,8.73
2023-05-13T03:16:26.049Z,8.63
2023-05-13T03:18:54.024Z,8.17
2023-05-13T03:21:22.054Z,8.43
2023-05-13T03:23:51.488Z,7.73
2023-05-13T03:26:21.358Z,8.67
2023-05-13T03:28:49.309Z,8.50
2023-05-13T03:31:18.300Z,7.73
2023-05-13T03:33:46.680Z,8.10
2023-05-13T03:36:15.663Z,7.77
2023-05-13T03:38:43.572Z,7.87
2023-05-13T03:41:12.850Z,8.10
2023-05-13T03:43:41.065Z,8.10
2023-05-13T03:46:11.880Z,7.90
2023-05-13T03:48:39.969Z,7.73
2023-05-13T03:51:08.052Z,8.03
2023-05-13T03:53:36.092Z,8.43
2023-05-13T03:56:04.137Z,8.37
2023-05-13T03:58:33.445Z,8.90
2023-05-13T04:01:01.598Z,8.53
2023-05-13T04:03:29.602Z,8.23
2023-05-13T04:05:57.541Z,8.80
2023-05-13T04:08:25.723Z,7.83
2023-05-13T04:10:54.422Z,8.63
2023-05-13T04:13:22.331Z,7.93
2023-05-13T04:15:51.950Z,8.73
2023-05-13T04:18:19.854Z,8.23
2023-05-13T04:20:47.708Z,8.50
2023-05-13T04:23:15.634Z,8.10
2023-05-13T04:25:43.545Z,8.47
2023-05-13T04:28:11.430Z,8.17
2023-05-13T04:30:43.709Z,8.50
2023-05-13T04:33:13.575Z,8.97
2023-05-13T04:35:44.632Z,7.90
2023-05-13T04:38:13.443Z,8.50
2023-05-13T04:40:41.292Z,8.37
2023-05-13T04:43:12.090Z,8.33
2023-05-13T04:45:55.515Z,7.87
2023-05-13T04:48:27.806Z,8.43
2023-05-13T04:50:56.084Z,8.33
2023-05-13T04:53:25.634Z,8.83
2023-05-13T04:56:00.650Z,8.93
2023-05-13T04:58:29.932Z,9.20
2023-05-13T05:00:58.371Z,8.90
2023-05-13T05:03:27.947Z,8.23
2023-05-13T05:05:56.007Z,9.07
2023-05-13T05:08:25.274Z,8.50
2023-05-13T05:10:53.552Z,8.30
2023-05-13T05:13:21.485Z,8.80
2023-05-13T05:15:49.407Z,8.77
2023-05-13T05:18:17.497Z,9.00
2023-05-13T05:20:50.074Z,8.77
2023-05-13T05:23:20.180Z,9.00
2023-05-13T05:25:49.830Z,9.37
2023-05-13T05:28:21.167Z,9.60
2023-05-13T05:30:49.157Z,9.00
2023-05-13T05:33:22.753Z,9.07
2023-05-13T05:35:53.152Z,9.30
2023-05-13T05:38:25.079Z,9.20
2023-05-13T05:40:54.034Z,8.93
2023-05-13T05:43:22.025Z,9.10
2023-05-13T05:45:52.841Z,9.03
2023-05-13T05:48:21.695Z,9.00
2023-05-13T05:50:49.840Z,9.37
2023-05-13T05:53:26.136Z,9.27
2023-05-13T05:55:54.679Z,9.40
2023-05-13T05:58:22.885Z,9.90
2023-05-13T06:00:52.254Z,8.90
2023-05-13T06:03:20.388Z,9.07
2023-05-13T06:05:48.513Z,9.43
2023-05-13T06:08:16.401Z,9.50
2023-05-13T06:10:45.849Z,9.87
2023-05-13T06:13:14.600Z,9.23
2023-05-13T06:15:42.641Z,9.77
2023-05-13T06:18:11.977Z,9.70
2023-05-13T06:20:39.923Z,9.93
2023-05-13T06:23:08.595Z,9.97
2023-05-13T06:25:36.528Z,10.53
2023-05-13T06:28:06.196Z,9.30
2023-05-13T06:30:34.129Z,10.03
2023-05-13T06:33:02.660Z,10.50
2023-05-13T06:35:31.976Z,10.47
2023-05-13T06:38:01.896Z,10.03
2023-05-13T06:40:30.444Z,9.80
2023-05-13T06:42:58.394Z,9.67
2023-05-13T06:45:39.726Z,9.77
2023-05-13T06:48:08.056Z,10.30
2023-05-13T06:50:38.085Z,9.30
2023-05-13T06:53:05.932Z,10.80
2023-05-13T06:55:35.913Z,10.40
2023-05-13T06:58:03.763Z,10.23
2023-05-13T07:00:31.600Z,9.90
2023-05-13T07:03:00.787Z,9.57
2023-05-13T07:05:28.753Z,10.20
2023-05-13T07:07:56.643Z,10.53
2023-05-13T07:10:24.853Z,10.47
2023-05-13T07:12:52.936Z,10.40
2023-05-13T07:15:21.233Z,10.73
2023-05-13T07:17:49.321Z,10.47
2023-05-13T07:20:22.132Z,10.47
2023-05-13T07:22:50.795Z,11.17
2023-05-13T07:25:19.126Z,10.63
2023-05-13T07:27:47.797Z,11.40
2023-05-13T07:30:15.901Z,10.37
2023-05-13T07:32:43.849Z,10.77
2023-05-13T07:35:12.148Z,10.77
2023-05-13T07:37:41.655Z,11.20
2023-05-13T07:40:29.134Z,10.60
2023-05-13T07:42:57.030Z,10.73
2023-05-13T07:45:25.185Z,10.90
2023-05-13T07:47:53.089Z,10.20
2023-05-13T07:50:21.440Z,11.07
2023-05-13T07:52:51.791Z,11.17
2023-05-13T07:55:20.271Z,10.93
2023-05-13T07:57:48.377Z,10.70
2023-05-13T08:00:16.890Z,11.37
2023-05-13T08:02:44.915Z,10.77
2023-05-13T08:05:13.008Z,10.93
2023-05-13T08:07:40.998Z,10.90
2023-05-13T08:10:10.921Z,12.27
2023-05-13T08:12:40.305Z,11.20
2023-05-13T08:15:09.250Z,11.43
2023-05-13T08:17:37.391Z,10.47
2023-05-13T08:20:05.942Z,10.70
2023-05-13T08:22:33.900Z,9.87
2023-05-13T08:25:01.854Z,10.90
2023-05-13T08:27:31.183Z,11.03
2023-05-13T08:29:59.135Z,11.03
2023-05-13T08:32:27.166Z,11.40
2023-05-13T08:34:55.207Z,10.20
2023-05-13T08:37:23.210Z,10.90
2023-05-13T08:39:51.105Z,10.53
2023-05-13T08:42:21.740Z,10.43
2023-05-13T08:44:53.049Z,11.17
2023-05-13T08:47:28.587Z,10.13
2023-05-13T08:49:57.229Z,8.87
2023-05-13T08:52:26.135Z,9.43
2023-05-13T08:54:55.321Z,9.93
2023-05-13T08:57:23.204Z,9.40
2023-05-13T08:59:52.357Z,9.97
2023-05-13T09:02:20.572Z,10.07
2023-05-13T09:04:54.780Z,10.27
2023-05-13T09:07:22.684Z,10.20
2023-05-13T09:09:51.243Z,8.83
2023-05-13T09:12:46.796Z,9.73
2023-05-13T09:15:17.360Z,9.33
2023-05-13T09:17:46.454Z,8.37
2023-05-13T09:20:16.259Z,7.07
2023-05-13T09:22:47.906Z,6.97
2023-05-13T09:25:17.543Z,7.50
2023-05-13T09:27:47.922Z,7.40
2023-05-13T09:30:17.253Z,7.90
2023-05-13T09:32:45.269Z,7.30
2023-05-13T09:35:17.237Z,7.00
2023-05-13T09:37:46.388Z,6.37
2023-05-13T09:40:15.857Z,6.70
2023-05-13T09:42:44.744Z,6.80
2023-05-13T09:45:13.916Z,6.00
2023-05-13T09:47:43.904Z,7.00
2023-05-13T09:50:13.324Z,6.37
2023-05-13T09:52:41.217Z,6.00
2023-05-13T09:55:10.545Z,6.17
2023-05-13T09:57:39.235Z,7.23
2023-05-13T10:00:11.039Z,6.33
2023-05-13T10:02:54.460Z,6.40
2023-05-13T10:05:23.302Z,6.57
2023-05-13T10:07:51.203Z,6.70
2023-05-13T10:10:19.603Z,6.47
2023-05-13T10:12:48.608Z,5.70
2023-05-13T10:15:17.299Z,5.87
2023-05-13T10:17:45.683Z,6.17
2023-05-13T10:20:16.806Z,6.63
2023-05-13T10:22:45.372Z,6.37
2023-05-13T10:25:13.269Z,6.57
2023-05-13T10:27:41.552Z,6.30
2023-05-13T10:30:10.494Z,7.03
2023-05-13T10:32:40.151Z,6.20
2023-05-13T10:35:12.565Z,7.13
2023-05-13T10:38:02.934Z,6.87
2023-05-13T10:41:21.644Z,5.53
2023-05-13T10:43:58.561Z,5.80
2023-05-13T10:46:27.513Z,5.50
2023-05-13T10:48:57.903Z,6.87
2023-05-13T10:51:26.958Z,5.93
2023-05-13T10:53:58.405Z,5.83
2023-05-13T10:56:27.895Z,5.10
2023-05-13T10:58:59.947Z,6.07
2023-05-13T11:01:29.970Z,5.33
2023-05-13T11:03:59.973Z,5.20
2023-05-13T11:06:33.017Z,5.10
2023-05-13T11:09:20.102Z,4.93
2023-05-13T11:11:49.398Z,5.23
2023-05-13T11:14:18.536Z,4.73
2023-05-13T11:16:48.116Z,4.20
2023-05-13T11:19:24.214Z,4.93
2023-05-13T11:21:54.073Z,4.63
2023-05-13T11:24:24.014Z,5.13
2023-05-13T11:26:54.224Z,4.43
2023-05-13T11:29:49.020Z,4.03
2023-05-13T11:32:37.119Z,4.70
2023-05-13T11:35:06.322Z,4.60
2023-05-13T11:37:34.450Z,4.10
2023-05-13T11:40:05.054Z,4.10
2023-05-13T11:42:33.033Z,3.37
2023-05-13T11:45:01.022Z,3.67
2023-05-13T11:47:29.026Z,3.60
2023-05-13T11:49:57.218Z,3.17
2023-05-13T11:52:25.176Z,3.37
2023-05-13T11:54:54.895Z,3.53
2023-05-13T11:57:26.504Z,3.40
2023-05-13T11:59:56.421Z,3.20
2023-05-13T12:02:26.234Z,3.17
2023-05-13T12:04:54.612Z,3.07
2023-05-13T12:07:24.099Z,3.53
2023-05-13T12:09:52.805Z,3.20
2023-05-13T12:12:21.266Z,3.20
2023-05-13T12:14:51.135Z,3.23
2023-05-13T12:17:19.579Z,3.03
2023-05-13T12:20:06.904Z,3.27
2023-05-13T12:22:35.446Z,3.30
2023-05-13T12:25:43.674Z,3.27
2023-05-13T12:28:16.316Z,3.23
2023-05-13T12:30:51.584Z,3.40
2023-05-13T12:33:21.189Z,3.47
2023-05-13T12:35:50.923Z,3.00
2023-05-13T12:38:20.598Z,3.40
2023-05-13T12:40:49.836Z,2.93
2023-05-13T12:43:20.178Z,3.37
2023-05-13T12:45:54.725Z,3.27
2023-05-13T12:48:25.894Z,3.17
2023-05-13T12:50:53.876Z,3.20
2023-05-13T12:53:21.817Z,3.47
2023-05-13T12:55:49.710Z,3.37
2023-05-13T12:58:17.590Z,3.20
2023-05-13T13:00:47.360Z,3.20
2023-05-13T13:03:16.868Z,3.17
2023-05-13T13:05:44.925Z,3.20
2023-05-13T13:08:12.799Z,3.20
2023-05-13T13:10:40.725Z,3.20
2023-05-13T13:13:08.673Z,2.93
2023-05-13T13:15:36.631Z,3.20
2023-05-13T13:18:04.740Z,3.20
2023-05-13T13:20:34.471Z,3.23
2023-05-13T13:23:02.344Z,3.47
2023-05-13T13:25:30.311Z,2.90
2023-05-13T13:27:58.225Z,3.00
2023-05-13T13:30:26.296Z,2.97
2023-05-13T13:32:54.355Z,3.07
2023-05-13T13:35:22.534Z,2.80
2023-05-13T13:37:52.065Z,3.10
2023-05-13T13:40:20.073Z,3.00
2023-05-13T13:42:48.224Z,3.10
2023-05-13T13:45:16.132Z,3.10
2023-05-13T13:47:44.179Z,2.97
2023-05-13T13:50:12.860Z,3.00
2023-05-13T13:52:40.753Z,3.73
2023-05-13T13:55:11.663Z,3.37
2023-05-13T13:57:39.810Z,3.30
2023-05-13T14:00:09.743Z,3.43
2023-05-13T14:02:37.726Z,3.00
2023-05-13T14:05:06.436Z,3.20
2023-05-13T14:07:34.409Z,3.20
2023-05-13T14:10:02.234Z,3.17
2023-05-13T14:12:31.568Z,3.17
2023-05-13T14:14:59.899Z,3.50
2023-05-13T14:17:27.999Z,3.50
2023-05-13T14:19:56.079Z,3.23
2023-05-13T14:22:24.420Z,3.40
2023-05-13T14:24:53.211Z,3.37
2023-05-13T14:27:24.632Z,3.10
2023-05-13T14:29:54.019Z,3.40
2023-05-13T14:32:21.933Z,2.90
2023-05-13T14:34:49.815Z,3.33
2023-05-13T14:37:17.688Z,3.17
2023-05-13T14:40:05.408Z,3.00
2023-05-13T14:42:33.340Z,3.50
2023-05-13T14:45:02.542Z,3.00
2023-05-13T14:47:30.370Z,3.23
2023-05-13T14:49:58.526Z,3.17
2023-05-13T14:52:26.704Z,3.07
2023-05-13T14:54:54.924Z,3.17
2023-05-13T14:57:22.868Z,3.37
2023-05-13T14:59:53.801Z,2.63
2023-05-13T15:02:23.201Z,3.23
2023-05-13T15:04:51.036Z,3.23
2023-05-13T15:07:19.050Z,3.07
2023-05-13T15:09:46.898Z,2.50
2023-05-13T15:12:14.719Z,3.17
2023-05-13T15:14:42.641Z,2.80
2023-05-13T15:17:11.989Z,2.70
2023-05-13T15:19:41.414Z,2.97
2023-05-13T15:22:09.356Z,3.07
2023-05-13T15:24:38.748Z,2.90
2023-05-13T15:27:06.980Z,3.13
2023-05-13T15:29:34.849Z,2.70
2023-05-13T15:32:03.264Z,2.90
2023-05-13T15:34:31.150Z,3.00
2023-05-13T15:37:00.590Z,3.00
2023-05-13T15:39:28.523Z,3.17
2023-05-13T15:41:56.386Z,2.97
2023-05-13T15:44:24.265Z,2.80
2023-05-13T15:46:52.408Z,3.27
2023-05-13T15:49:20.385Z,2.67
2023-05-13T15:51:48.304Z,2.83
2023-05-13T15:54:17.477Z,2.97
2023-05-13T15:56:45.496Z,2.80
2023-05-13T15:59:13.659Z,2.40
2023-05-13T16:01:41.856Z,2.70
2023-05-13T16:04:10.502Z,2.73
2023-05-13T16:06:38.479Z,2.83
2023-05-13T16:09:06.437Z,2.40
2023-05-13T16:11:35.866Z,2.93
2023-05-13T16:14:04.572Z,3.20
2023-05-13T16:16:32.522Z,2.87
2023-05-13T16:19:03.795Z,2.97
2023-05-13T16:21:31.980Z,2.80
2023-05-13T16:23:59.895Z,3.00
2023-05-13T16:26:27.859Z,2.93
2023-05-13T16:28:57.070Z,2.70
2023-05-13T16:31:24.941Z,3.00
2023-05-13T16:33:53.042Z,2.60
2023-05-13T16:36:20.937Z,2.77
2023-05-13T16:38:48.848Z,2.77
2023-05-13T16:41:16.681Z,3.17
2023-05-13T16:43:44.541Z,2.90
2023-05-13T16:46:15.318Z,3.13
2023-05-13T16:48:43.924Z,2.70
2023-05-13T16:51:11.866Z,3.10
2023-05-13T16:53:39.793Z,3.17
2023-05-13T16:56:07.974Z,3.10
2023-05-13T16:58:35.855Z,3.30
2023-05-13T17:01:03.778Z,3.23
2023-05-13T17:03:33.150Z,3.23
2023-05-13T17:06:01.095Z,3.00
2023-05-13T17:08:28.985Z,3.47
2023-05-13T17:10:56.882Z,3.30
2023-05-13T17:13:24.808Z,3.23
2023-05-13T17:15:52.850Z,3.30
2023-05-13T17:18:20.756Z,3.43
2023-05-13T17:20:50.064Z,3.07
2023-05-13T17:23:17.925Z,3.10
2023-05-13T17:25:45.839Z,3.43
2023-05-13T17:28:13.728Z,3.30
2023-05-13T17:31:02.612Z,3.30
2023-05-13T17:33:30.560Z,3.20
2023-05-13T17:36:19.421Z,3.30
2023-05-13T17:38:47.459Z,3.07
2023-05-13T17:41:15.333Z,3.37
2023-05-13T17:43:43.242Z,3.13
2023-05-13T17:46:11.151Z,3.10
2023-05-13T17:48:39.133Z,3.30
2023-05-13T17:51:07.120Z,2.90
2023-05-13T17:53:36.355Z,3.37
2023-05-13T17:56:04.727Z,2.97
2023-05-13T17:58:33.589Z,3.43
2023-05-13T18:01:01.639Z,3.27
2023-05-13T18:03:29.581Z,3.03
2023-05-13T18:05:57.528Z,3.10
2023-05-13T18:08:25.539Z,3.00
2023-05-13T18:10:54.823Z,2.90
2023-05-13T18:13:22.660Z,3.00
2023-05-13T18:15:50.677Z,3.13
2023-05-13T18:18:18.647Z,3.53
2023-05-13T18:20:46.549Z,3.57
2023-05-13T18:23:14.426Z,3.40
2023-05-13T18:25:52.471Z,3.00
2023-05-13T18:28:24.599Z,2.93
2023-05-13T18:30:52.404Z,3.30
2023-05-13T18:33:21.418Z,3.47
2023-05-13T18:35:49.504Z,3.50
2023-05-13T18:38:17.389Z,3.33
2023-05-13T18:40:45.199Z,3.63
2023-05-13T18:43:13.586Z,3.20
2023-05-13T18:45:43.065Z,3.60
2023-05-13T18:48:11.105Z,4.17
2023-05-13T18:50:39.113Z,3.70
2023-05-13T18:53:07.038Z,3.30
2023-05-13T18:55:34.973Z,3.20
2023-05-13T18:58:02.826Z,3.40
2023-05-13T19:00:30.675Z,3.77
2023-05-13T19:03:00.539Z,3.43
2023-05-13T19:05:28.664Z,3.33
2023-05-13T19:07:57.223Z,3.43
2023-05-13T19:10:25.231Z,3.50
2023-05-13T19:12:53.224Z,3.47
2023-05-13T19:15:23.386Z,3.60
2023-05-13T19:17:51.496Z,3.57
2023-05-13T19:20:21.117Z,3.60
2023-05-13T19:22:49.216Z,3.90
2023-05-13T19:25:17.296Z,3.50
2023-05-13T19:28:03.298Z,3.40
2023-05-13T19:30:31.266Z,3.87
2023-05-13T19:32:59.242Z,3.67
2023-05-13T19:35:28.628Z,3.97
2023-05-13T19:37:57.093Z,3.80
2023-05-13T19:40:25.151Z,3.97
2023-05-13T19:42:53.073Z,3.93
2023-05-13T19:45:22.018Z,4.50
2023-05-13T19:47:50.372Z,4.00
2023-05-13T19:50:18.360Z,4.00
2023-05-13T19:52:47.607Z,4.03
2023-05-13T19:55:15.440Z,4.33
2023-05-13T19:57:43.747Z,3.93
2023-05-13T20:00:13.160Z,4.10
2023-05-13T20:02:41.496Z,4.20
2023-05-13T20:05:10.222Z,4.37
2023-05-13T20:07:38.100Z,4.23
2023-05-13T20:10:08.991Z,4.30
2023-05-13T20:12:36.898Z,4.43
2023-05-13T20:15:05.364Z,4.73
2023-05-13T20:17:33.368Z,4.20
2023-05-13T20:20:01.432Z,4.20
2023-05-13T20:22:29.348Z,4.70
2023-05-13T20:24:57.293Z,4.27
2023-05-13T20:27:26.497Z,4.57
2023-05-13T20:29:55.631Z,4.50
2023-05-13T20:32:25.259Z,5.10
2023-05-13T20:34:54.495Z,5.03
2023-05-13T20:37:23.912Z,4.60
2023-05-13T20:39:52.347Z,5.03
2023-05-13T20:42:22.254Z,5.33
2023-05-13T20:44:52.031Z,5.30
2023-05-13T20:47:20.981Z,4.83
2023-05-13T20:49:48.983Z,5.07
2023-05-13T20:52:17.047Z,5.17
2023-05-13T20:54:44.969Z,5.37
2023-05-13T20:57:12.824Z,5.20
2023-05-13T20:59:40.928Z,4.80
2023-05-13T21:02:10.168Z,5.47
2023-05-13T21:04:38.158Z,4.63
2023-05-13T21:07:06.811Z,4.80
2023-05-13T21:09:34.813Z,5.00
2023-05-13T21:12:02.727Z,5.00
2023-05-13T21:14:30.552Z,4.87
2023-05-13T21:16:58.566Z,4.80
2023-05-13T21:19:27.802Z,4.70
2023-05-13T21:21:55.699Z,4.40
2023-05-13T21:24:23.626Z,4.97
2023-05-13T21:26:52.105Z,5.13
2023-05-13T21:29:20.029Z,4.80
2023-05-13T21:31:48.252Z,5.17
2023-05-13T21:37:03.434Z,5.50
2023-05-13T21:39:31.350Z,4.50
2023-05-13T21:42:00.631Z,5.33
2023-05-13T21:44:28.900Z,5.70
2023-05-13T21:47:16.228Z,5.30
2023-05-13T21:49:44.171Z,5.30
2023-05-13T21:52:13.373Z,5.27
2023-05-13T21:54:41.477Z,6.07
2023-05-13T21:57:09.920Z,6.03
2023-05-13T21:59:37.770Z,5.90
2023-05-13T22:02:05.758Z,6.17
2023-05-13T22:04:33.653Z,5.93
2023-05-13T22:07:02.727Z,5.90
2023-05-13T22:09:32.162Z,5.47
2023-05-13T22:11:59.980Z,6.03
2023-05-13T22:14:27.838Z,6.17
2023-05-13T22:17:07.885Z,6.27
2023-05-13T22:19:37.434Z,5.53
2023-05-13T22:22:05.782Z,6.50
2023-05-13T22:24:34.992Z,6.67
2023-05-13T22:27:02.870Z,6.50
2023-05-13T22:29:31.177Z,6.43
2023-05-13T22:31:59.100Z,6.53
2023-05-13T22:34:27.395Z,6.57
2023-05-13T22:36:55.444Z,6.53
2023-05-13T22:39:23.359Z,6.50
2023-05-13T22:41:54.594Z,6.10
2023-05-13T22:44:23.842Z,6.90
2023-05-13T22:46:53.380Z,6.57
2023-05-13T22:49:21.251Z,7.13
2023-05-13T22:51:49.173Z,6.57
2023-05-13T22:54:17.096Z,6.23
2023-05-13T22:56:44.997Z,7.03
2023-05-13T22:59:14.295Z,7.33
2023-05-13T23:01:42.308Z,7.77
2023-05-13T23:04:10.237Z,7.13
2023-05-13T23:06:38.160Z,7.33
2023-05-13T23:09:07.441Z,6.30
2023-05-13T23:11:37.040Z,6.60
2023-05-13T23:14:05.122Z,7.60
2023-05-13T23:16:34.406Z,8.53
2023-05-13T23:19:02.433Z,8.07
2023-05-13T23:21:30.488Z,9.23
2023-05-13T23:23:58.354Z,9.17
2023-05-13T23:26:26.271Z,8.83
2023-05-13T23:28:54.218Z,8.50
2023-05-13T23:31:22.147Z,9.30
2023-05-13T23:33:51.489Z,8.67
2023-05-13T23:36:19.326Z,9.33
2023-05-13T23:39:05.997Z,9.13
2023-05-13T23:41:35.182Z,9.90
2023-05-13T23:44:03.368Z,10.10
2023-05-13T23:46:31.892Z,10.43
2023-05-13T23:49:01.129Z,9.90
2023-05-13T23:51:29.063Z,10.07
2023-05-13T23:53:56.942Z,10.27
2023-05-13T23:56:24.874Z,9.60
2023-05-13T23:58:53.116Z,9.40
